Portada
METAR-TAF:

METAR-TAF

Aeroports :

Chiang Mai, Tailàndia

latitud: 18-47N, longitud: 098-59E, altitud: 312 m

Observació

L'informe es va fer fa 19 minuts, a les 03:30 UTC
Vent 4 kt del Oest/Sud-Oest
Temperatura 29°C
Humitat 70%
Pressió 1005 hPa
Visibilitat: 8000 m
Escasses núvols a una alçada de 1800 ft
Cel ennuvolat a una alçada de 3500 ft

METAR: VTCC 180330Z 25004KT 8000 FEW018 BKN035 29/23 Q1005 NOSIG

Hora: 10:49 (03:49 UTC)

Pronòstic

L'informe es va fer fa 4 hores i 49 minuts, a les 23:00 UTC
Pronòstic vàlid del 18 a les 00 UTC al 19 a les 06 UTC
Vent 5 kt del Sud/Sud-Est
Visibilitat 10 km o més
Cel ennuvolat a una alçada de 3000 ft
Temporalment
l' 18 a les 05 UTC al 18 a les 11 UTC
Vent 15 kt amb direcció variable amb ràfegues de 25 kt
Visibilitat: 5000 m
Escasses núvols a una alçada de 2500 ft, Cumulonimbus.
Cel ennuvolat a una alçada de 3000 ft
tempesta, pluja

TAF: VTCC 172300Z 1800/1906 16005KT 9999 BKN030 TEMPO 1805/1811 VRB15G25KT 5000 TSRA FEW025CB BKN030

Observacions i pronòstics meteorològics de més de 4000 aeroports (METAR i TAF).

Les estacions disponibles són els punts grocs i vermells al mapa.

Posi el ratolí al punt desitjat per veure el nom de l'estació.

Feu clic per veure les observacions i els pronòstics meteorològics.

Per canviar el mapa: feu clic els botons verds amb una creu de color negre per apropar; al botó verd amb un guió per allunyar la imatge; o en les fletxes verdes per a mapes adjacents.


METAR-TAF: